• Join FlightAware (Why Join?)
  • Login
  • US Flag GB Flag 
02:21 EDT


 

Airport Tracker/Info


-or-


 

Live Flight TrackerFlight Track Log ✈ GJS6221 ✈ 02-Jan-2014 ✈ KLGA - KSAV

Flight Track Log - Related Links

Times and Time Zones

All times are in EST time to prevent confusion due to time zone crossing. See the GJS6221 flight status page for this flight to view local times or setup timezone preferences in your user account.

Time Position Orientation Groundspeed Altitude Reporting Facility
EST Latitude Longitude Course Direction KTS MPH feet Rate Location/Type
16:27 40.7500 -73.8333 214° Southwest 186 214 2,700  Level New York TRACON
16:29 40.6164 -73.8906 198° South 239 275 8,200 2,340 Climbing New York Center
16:30 40.5672 -73.9319 213° Southwest 244 281 10,500 1,500 Climbing New York Center
16:31 40.4953 -73.9750 204° Southwest 254 292 11,200 720 Climbing New York Center
16:32 40.4449 -74.1956 214° Southwest  Level Estimated
16:32 40.4211 -74.0178 204° Southwest 296 341 12,000  Level New York Center
16:34 40.2667 -74.1044 203° Southwest 327 376 15,000 1,560 Climbing Washington Center
16:35 40.1778 -74.1553 204° Southwest 341 392 16,500 1,440 Climbing Washington Center
16:36 40.0953 -74.2247 213° Southwest 352 405 18,000 1,560 Climbing Washington Center
16:37 40.0211 -74.3075 221° Southwest 352 405 19,600 1,920 Climbing Washington Center
16:38 39.9492 -74.3900 221° Southwest 357 411 21,800 1,980 Climbing Washington Center
16:39 39.8811 -74.4642 220° Southwest 346 398 23,700 1,440 Climbing Washington Center
16:40 39.8172 -74.5381 222° Southwest 329 379 24,700 960 Climbing Washington Center
16:41 39.7492 -74.6172 222° Southwest 329 379 25,700 960 Climbing Washington Center
16:42 39.6831 -74.6908 221° Southwest 329 379 26,700 960 Climbing Washington Center
16:43 39.6147 -74.7644 220° Southwest 329 379 27,700 960 Climbing Washington Center
16:44 39.5486 -74.8406 222° Southwest 329 379 28,700 900 Climbing Washington Center
16:45 39.4825 -74.9139 221° Southwest 329 379 29,600 780 Climbing Washington Center
16:46 39.4161 -74.9872 220° Southwest 329 379 30,300 660 Climbing Washington Center
16:47 39.3456 -75.0628 220° Southwest 329 379 31,000 600 Climbing Washington Center
16:48 39.2708 -75.1225 212° Southwest 329 379 31,500 480 Climbing Washington Center
16:49 39.1814 -75.1658 201° Southwest 334 384 32,000 480 Climbing Washington Center
16:50 39.0856 -75.1986 195° South 349 402 32,500 480 Climbing Washington Center
16:51 38.9961 -75.2417 201° Southwest 354 407 33,000 480 Climbing Washington Center
16:52 38.9044 -75.2822 199° South 354 407 33,500 540 Climbing Washington Center
16:53 38.8108 -75.3225 199° South 354 407 34,100 720 Climbing Washington Center
16:54 38.7192 -75.3547 195° South 349 402 35,000 660 Climbing Washington Center
16:55 38.6294 -75.3950 199° South 344 396 35,500 480 Climbing Washington Center
16:56 38.5378 -75.4350 199° South 344 396 36,000 480 Climbing Washington Center
16:57 38.4461 -75.4725 198° South 344 396 36,500 480 Climbing Washington Center
16:58 38.3567 -75.5122 199° South 344 396 37,000 480 Climbing Washington Center
16:59 38.2711 -75.5786 211° Southwest 338 389 37,500 480 Climbing Washington Center
17:00 38.1981 -75.6472 216° Southwest 333 383 38,000 240 Climbing Washington Center
17:01 38.1272 -75.7158 217° Southwest 328 377 38,000  Level Washington Center
17:02 38.0542 -75.7842 216° Southwest 333 383 38,000  Level Washington Center
17:03 37.9769 -75.8553 216° Southwest 333 383 38,000  Level Washington Center
17:04 37.9036 -75.9233 216° Southwest 338 389 38,000  Level Washington Center
17:05 37.8264 -75.9967 217° Southwest 338 389 38,000  Level Washington Center
17:06 37.7636 -76.0594 218° Southwest 338 389 38,000  Level Washington Center
17:07 37.6881 -76.1297 216° Southwest 338 389 38,000  Level Washington Center
17:08 37.6064 -76.2000 214° Southwest 333 383 38,000  Level Washington Center
17:09 37.5311 -76.2675 215° Southwest 333 383 38,000  Level Washington Center
17:10 37.4575 -76.3375 217° Southwest 333 383 38,000  Level Washington Center
17:11 37.3819 -76.4047 215° Southwest 338 389 38,000  Level Washington Center
17:12 37.3106 -76.4744 218° Southwest 338 389 38,000  Level Washington Center
17:13 37.2392 -76.5442 218° Southwest 338 389 38,000  Level Washington Center
17:14 37.1678 -76.6161 219° Southwest 338 389 38,000  Level Washington Center
17:15 37.0961 -76.6856 218° Southwest 338 389 38,000  Level Washington Center
17:16 37.0225 -76.7572 218° Southwest 338 389 38,000  Level Washington Center
17:17 36.9508 -76.8264 218° Southwest 338 389 38,000  Level Washington Center
17:18 36.8792 -76.8981 219° Southwest 338 389 38,000  Level Washington Center
17:19 36.8075 -76.9694 219° Southwest 338 389 38,000  Level Washington Center
17:20 36.7356 -77.0408 219° Southwest 338 389 38,000  Level Washington Center
17:21 36.6617 -77.1092 217° Southwest 338 389 38,000  Level Washington Center
17:22 36.5900 -77.1803 219° Southwest 338 389 38,000  Level Washington Center
17:23 36.5181 -77.2511 218° Southwest 338 389 38,000  Level Washington Center
17:24 36.4442 -77.3194 217° Southwest 338 389 38,000  Level Washington Center
17:25 36.3742 -77.3900 219° Southwest 332 382 38,000  Level Washington Center
17:26 36.3022 -77.4581 217° Southwest 332 382 38,000  Level Washington Center
17:27 36.2408 -77.5183 218° Southwest 332 382 38,000  Level Washington Center
17:28 36.1686 -77.5861 217° Southwest 332 382 38,000  Level Washington Center
17:29 36.0944 -77.6561 217° Southwest 332 382 38,000  Level Washington Center
17:30 36.0244 -77.7261 219° Southwest 332 382 38,000  Level Washington Center
17:31 35.9503 -77.7933 216° Southwest 332 382 38,000  Level Washington Center
17:32 35.8781 -77.8606 217° Southwest 332 382 38,000  Level Washington Center
17:33 35.8036 -77.9303 217° Southwest 332 382 38,000  Level Washington Center
17:34 35.7314 -77.9972 217° Southwest 332 382 38,000  Level Washington Center
17:35 35.6569 -78.0692 218° Southwest 332 382 38,000  Level Washington Center
17:36 35.5844 -78.1333 216° Southwest 332 382 38,000  Level Washington Center
17:37 35.5100 -78.2050 218° Southwest 332 382 38,000  Level Washington Center
17:38 35.4292 -78.2786 217° Southwest 337 388 38,000  Level Washington Center
17:39 35.3503 -78.3500 216° Southwest 337 388 38,000  Level Washington Center
17:40 35.2756 -78.4186 217° Southwest 342 394 38,000  Level Washington Center
17:41 35.2031 -78.4872 218° Southwest 342 394 38,000  Level Washington Center
17:42 35.1283 -78.5583 218° Southwest 342 394 38,000  Level Washington Center
17:43 35.0514 -78.6264 216° Southwest 342 394 38,000  Level Washington Center
17:44 34.9767 -78.6972 218° Southwest 347 399 38,000  Level Washington Center
17:47 34.7294 -78.9217 217° Southwest 354 407 38,000  Level Jacksonville Center
17:48 34.6544 -78.9908 217° Southwest 354 407 38,000  Level Jacksonville Center
17:49 34.5750 -79.0597 216° Southwest 354 407 38,000  Level Jacksonville Center
17:50 34.4922 -79.1442 220° Southwest 354 407 38,000  Level Jacksonville Center
17:51 34.4150 -79.2156 217° Southwest 354 407 38,000  Level Jacksonville Center
17:52 34.3356 -79.2867 216° Southwest 359 413 38,000  Level Jacksonville Center
17:53 34.2564 -79.3553 216° Southwest 359 413 38,000  Level Jacksonville Center
17:54 34.1931 -79.4081 215° Southwest 353 406 38,000  Level Jacksonville Center
17:55 34.1033 -79.4869 216° Southwest 346 398 38,000  Level Jacksonville Center
17:56 34.0239 -79.5600 217° Southwest 354 407 38,000  Level Jacksonville Center
17:57 33.9464 -79.6256 215° Southwest 354 407 38,000 -60 Level Jacksonville Center
17:58 33.8669 -79.6961 216° Southwest 354 407 37,900 -600 Descending Jacksonville Center
17:59 33.7914 -79.7664 218° Southwest 354 407 36,800 -1,560 Descending Jacksonville Center
18:00 33.7178 -79.8314 216° Southwest 349 402 34,800 -2,040 Descending Jacksonville Center
18:01 33.6381 -79.9014 216° Southwest 349 402 32,800 -2,040 Descending Jacksonville Center
18:02 33.5586 -79.9739 217° Southwest 356 410 30,800 -2,040 Descending Jacksonville Center
18:03 33.4786 -80.0439 216° Southwest 362 417 28,800 -2,040 Descending Jacksonville Center
18:04 33.3989 -80.1111 215° Southwest 362 417 26,800 -2,040 Descending Jacksonville Center
18:05 33.3211 -80.1806 217° Southwest 351 404 24,800 -1,980 Descending Jacksonville Center
18:06 33.2453 -80.2475 216° Southwest 351 404 22,900 -2,040 Descending Jacksonville Center
18:07 33.1672 -80.3119 215° Southwest 351 404 20,800 -1,980 Descending Jacksonville Center
18:08 33.0956 -80.3783 218° Southwest 351 404 19,000 -1,800 Descending Jacksonville Center
18:09 33.0236 -80.4375 215° Southwest 356 410 17,300 -1,560 Descending Jacksonville Center
18:10 32.9478 -80.5014 215° Southwest 351 404 15,900 -1,500 Descending Jacksonville Center
18:11 32.8736 -80.5653 216° Southwest 351 404 14,400 -1,500 Descending Jacksonville Center
18:12 32.8017 -80.6286 217° Southwest 346 398 12,900 -1,500 Descending Jacksonville Center
18:13 32.7278 -80.6922 216° Southwest 335 386 11,400 -1,380 Descending Jacksonville Center
18:14 32.6681 -80.7431 216° Southwest 310 357 10,200 -1,500 Descending Jacksonville Center
18:15 32.6147 -80.7914 217° Southwest 256 295 8,500 -1,140 Descending Jacksonville Center
18:16 32.5506 -80.8322 208° Southwest 236 272 8,000 -300 Descending Jacksonville Center
18:17 32.4947 -80.8631 205° Southwest 241 277 8,000  Level Jacksonville Center
18:18 32.4286 -80.9014 206° Southwest 246 283 8,000 -60 Level Jacksonville Center
18:19 32.3644 -80.9372 205° Southwest 253 291 7,900 -120 Descending Jacksonville Center
18:21 32.2790 -81.0543 220° Southwest  Level FlightAware Approximate
18:28 32.1276 -81.2021 270° West  Level Estimated
18:29 32.1276 -81.2021 270° West  Level Estimated
18:30 32.1276 -81.2021 270° West  Level Estimated
18:31 32.1276 -81.2021 270° West  Level Estimated
18:32 32.1276 -81.2021 270° West  Level Estimated
18:33 32.1276 -81.2021 270° West  Level Estimated
18:34 32.1276 -81.2021 270° West  Level Estimated
18:35 32.1276 -81.2021 270° West  Level Estimated
18:36 32.1276 -81.2021 270° West  Level Estimated
18:37 32.1276 -81.2021 270° West  Level Estimated
18:38 32.1276 -81.2021 270° West  Level Estimated
18:39 32.1276 -81.2021 270° West  Level Estimated
18:40 32.1276 -81.2021 270° West  Level Estimated
18:41 32.1276 -81.2021 270° West  Level Estimated